sensor_id;sensor_type;location;lat;lon;timestamp;pressure;altitude;pressure_sealevel;temperature;humidity
19447;BME280;9862;49.462;11.054;2023-02-18T00:00:04;98745.66;;;11.57;100.00
19447;BME280;9862;49.462;11.054;2023-02-18T00:02:31;98753.69;;;11.64;100.00
19447;BME280;9862;49.462;11.054;2023-02-18T00:04:58;98752.81;;;11.57;100.00
19447;BME280;9862;49.462;11.054;2023-02-18T00:07:24;98748.13;;;11.59;100.00
19447;BME280;9862;49.462;11.054;2023-02-18T00:09:51;98742.97;;;11.57;100.00
19447;BME280;9862;49.462;11.054;2023-02-18T00:12:18;98753.22;;;11.54;100.00
19447;BME280;9862;49.462;11.054;2023-02-18T00:14:45;98747.06;;;11.53;100.00
19447;BME280;9862;49.462;11.054;2023-02-18T00:17:12;98756.03;;;11.45;100.00
19447;BME280;9862;49.462;11.054;2023-02-18T00:19:38;98748.66;;;11.47;100.00
19447;BME280;9862;49.462;11.054;2023-02-18T00:22:05;98749.94;;;11.52;100.00
19447;BME280;9862;49.462;11.054;2023-02-18T00:24:32;98740.09;;;11.52;100.00
19447;BME280;9862;49.462;11.054;2023-02-18T00:26:58;98747.69;;;11.55;100.00
19447;BME280;9862;49.462;11.054;2023-02-18T00:29:25;98739.75;;;11.62;100.00
19447;BME280;9862;49.462;11.054;2023-02-18T00:31:53;98749.13;;;11.58;100.00
19447;BME280;9862;49.462;11.054;2023-02-18T00:34:19;98745.84;;;11.56;100.00
19447;BME280;9862;49.462;11.054;2023-02-18T00:36:46;98752.00;;;11.56;100.00
19447;BME280;9862;49.462;11.054;2023-02-18T00:39:12;98745.66;;;11.57;100.00
19447;BME280;9862;49.462;11.054;2023-02-18T00:41:39;98740.56;;;11.62;100.00
19447;BME280;9862;49.462;11.054;2023-02-18T00:44:06;98748.34;;;11.64;100.00
19447;BME280;9862;49.462;11.054;2023-02-18T00:46:34;98745.06;;;11.62;100.00
19447;BME280;9862;49.462;11.054;2023-02-18T00:49:03;98749.38;;;11.63;100.00
19447;BME280;9862;49.462;11.054;2023-02-18T00:51:29;98743.03;;;11.64;100.00
19447;BME280;9862;49.462;11.054;2023-02-18T00:53:56;98742.63;;;11.67;100.00
19447;BME280;9862;49.462;11.054;2023-02-18T00:56:23;98744.66;;;11.65;100.00
19447;BME280;9862;49.462;11.054;2023-02-18T00:58:50;98746.75;;;11.69;100.00
19447;BME280;9862;49.462;11.054;2023-02-18T01:01:17;98744.28;;;11.68;100.00
19447;BME280;9862;49.462;11.054;2023-02-18T01:03:44;98764.34;;;11.64;100.00
19447;BME280;9862;49.462;11.054;2023-02-18T01:06:12;98748.13;;;11.59;100.00
19447;BME280;9862;49.462;11.054;2023-02-18T01:08:42;98743.44;;;11.61;100.00
19447;BME280;9862;49.462;11.054;2023-02-18T01:11:10;98749.63;;;11.68;100.00
19447;BME280;9862;49.462;11.054;2023-02-18T01:13:38;98747.91;;;11.54;100.00
19447;BME280;9862;49.462;11.054;2023-02-18T01:16:05;98763.88;;;11.54;100.00
19447;BME280;9862;49.462;11.054;2023-02-18T01:18:32;98755.69;;;11.49;100.00
19447;BME280;9862;49.462;11.054;2023-02-18T01:20:59;98757.00;;;11.31;100.00
19447;BME280;9862;49.462;11.054;2023-02-18T01:23:26;98765.00;;;11.31;100.00
19447;BME280;9862;49.462;11.054;2023-02-18T01:25:53;98763.69;;;11.21;100.00
19447;BME280;9862;49.462;11.054;2023-02-18T01:28:20;98761.06;;;11.27;100.00
19447;BME280;9862;49.462;11.054;2023-02-18T01:30:49;98765.00;;;11.31;100.00
19447;BME280;9862;49.462;11.054;2023-02-18T01:33:16;98760.69;;;11.37;100.00
19447;BME280;9862;49.462;11.054;2023-02-18T01:35:42;98761.72;;;11.29;100.00
19447;BME280;9862;49.462;11.054;2023-02-18T01:38:09;98768.75;;;11.15;100.00
19447;BME280;9862;49.462;11.054;2023-02-18T01:40:45;98772.16;;;11.03;100.00
19447;BME280;9862;49.462;11.054;2023-02-18T01:43:13;98773.81;;;11.04;100.00
19447;BME280;9862;49.462;11.054;2023-02-18T01:45:51;98770.53;;;11.08;100.00
19447;BME280;9862;49.462;11.054;2023-02-18T01:48:25;98771.16;;;11.04;100.00
19447;BME280;9862;49.462;11.054;2023-02-18T01:50:56;98787.13;;;11.04;100.00
19447;BME280;9862;49.462;11.054;2023-02-18T01:53:27;98773.81;;;11.04;100.00
19447;BME280;9862;49.462;11.054;2023-02-18T01:55:57;98772.16;;;11.03;100.00
19447;BME280;9862;49.462;11.054;2023-02-18T01:58:25;98785.09;;;11.06;100.00
19447;BME280;9862;49.462;11.054;2023-02-18T02:00:52;98777.50;;;11.03;100.00
19447;BME280;9862;49.462;11.054;2023-02-18T02:03:19;98778.72;;;11.00;100.00
19447;BME280;9862;49.462;11.054;2023-02-18T02:05:45;98768.88;;;11.01;100.00
19447;BME280;9862;49.462;11.054;2023-02-18T02:08:12;98766.22;;;11.01;100.00
19447;BME280;9862;49.462;11.054;2023-02-18T02:11:00;98760.69;;;11.02;100.00
19447;BME280;9862;49.462;11.054;2023-02-18T02:13:37;98756.19;;;11.03;100.00
19447;BME280;9862;49.462;11.054;2023-02-18T02:16:10;98759.88;;;11.02;100.00
19447;BME280;9862;49.462;11.054;2023-02-18T02:18:48;98756.81;;;11.05;100.00
19447;BME280;9862;49.462;11.054;2023-02-18T02:22:01;98742.41;;;10.99;100.00
19447;BME280;9862;49.462;11.054;2023-02-18T02:25:00;98753.66;;;10.95;100.00
19447;BME280;9862;49.462;11.054;2023-02-18T02:27:53;98745.03;;;10.93;100.00
19447;BME280;9862;49.462;11.054;2023-02-18T02:30:46;98749.56;;;10.99;100.00
19447;BME280;9862;49.462;11.054;2023-02-18T02:33:43;98734.47;;;11.06;100.00
19447;BME280;9862;49.462;11.054;2023-02-18T02:36:19;98734.81;;;10.96;100.00
19447;BME280;9862;49.462;11.054;2023-02-18T02:38:54;98730.16;;;11.05;100.00
19447;BME280;9862;49.462;11.054;2023-02-18T02:41:31;98725.03;;;11.03;100.00
19447;BME280;9862;49.462;11.054;2023-02-18T02:44:09;98721.75;;;11.01;100.00
19447;BME280;9862;49.462;11.054;2023-02-18T02:46:40;98718.44;;;10.99;100.00
19447;BME280;9862;49.462;11.054;2023-02-18T02:49:20;98709.69;;;11.05;100.00
19447;BME280;9862;49.462;11.054;2023-02-18T02:51:55;98709.72;;;11.12;100.00
19447;BME280;9862;49.462;11.054;2023-02-18T02:54:25;98714.03;;;11.13;100.00
19447;BME280;9862;49.462;11.054;2023-02-18T02:57:05;98708.25;;;11.09;100.00
19447;BME280;9862;49.462;11.054;2023-02-18T02:59:35;98717.31;;;11.15;100.00
19447;BME280;9862;49.462;11.054;2023-02-18T03:02:15;98705.03;;;11.14;100.00
19447;BME280;9862;49.462;11.054;2023-02-18T03:04:58;98693.97;;;11.17;100.00
19447;BME280;9862;49.462;11.054;2023-02-18T03:07:55;98679.63;;;11.18;100.00
19447;BME280;9862;49.462;11.054;2023-02-18T03:10:43;98702.63;;;11.26;100.00
19447;BME280;9862;49.462;11.054;2023-02-18T03:13:17;98701.84;;;11.32;100.00
19447;BME280;9862;49.462;11.054;2023-02-18T03:15:49;98693.25;;;11.30;100.00
19447;BME280;9862;49.462;11.054;2023-02-18T03:18:25;98707.00;;;11.33;100.00
19447;BME280;9862;49.462;11.054;2023-02-18T03:20:59;98707.56;;;11.29;100.00
19447;BME280;9862;49.462;11.054;2023-02-18T03:23:33;98702.88;;;11.31;100.00
19447;BME280;9862;49.462;11.054;2023-02-18T03:26:03;98700.41;;;11.29;100.00
19447;BME280;9862;49.462;11.054;2023-02-18T03:28:31;98709.59;;;11.27;100.00
19447;BME280;9862;49.462;11.054;2023-02-18T03:31:02;98706.75;;;11.28;100.00
19447;BME280;9862;49.462;11.054;2023-02-18T03:33:35;98708.84;;;11.33;100.00
19447;BME280;9862;49.462;11.054;2023-02-18T03:36:03;98705.16;;;11.34;100.00
19447;BME280;9862;49.462;11.054;2023-02-18T03:38:34;98701.66;;;11.33;100.00
19447;BME280;9862;49.462;11.054;2023-02-18T03:41:02;98712.94;;;11.35;100.00
19447;BME280;9862;49.462;11.054;2023-02-18T03:43:30;98701.66;;;11.33;100.00
19447;BME280;9862;49.462;11.054;2023-02-18T03:45:57;98705.16;;;11.34;100.00
19447;BME280;9862;49.462;11.054;2023-02-18T03:48:24;98712.53;;;11.32;100.00
19447;BME280;9862;49.462;11.054;2023-02-18T03:50:51;98716.22;;;11.31;100.00
19447;BME280;9862;49.462;11.054;2023-02-18T03:53:17;98717.03;;;11.31;100.00
19447;BME280;9862;49.462;11.054;2023-02-18T03:55:45;98711.50;;;11.33;100.00
19447;BME280;9862;49.462;11.054;2023-02-18T03:58:12;98704.72;;;11.30;100.00
19447;BME280;9862;49.462;11.054;2023-02-18T04:00:38;98728.50;;;11.32;100.00
19447;BME280;9862;49.462;11.054;2023-02-18T04:03:05;98701.00;;;11.25;100.00
19447;BME280;9862;49.462;11.054;2023-02-18T04:05:31;98720.06;;;11.28;100.00
19447;BME280;9862;49.462;11.054;2023-02-18T04:07:58;98711.84;;;11.23;100.00
19447;BME280;9862;49.462;11.054;2023-02-18T04:10:24;98712.06;;;11.28;100.00
19447;BME280;9862;49.462;11.054;2023-02-18T04:12:53;98719.50;;;11.33;100.00
19447;BME280;9862;49.462;11.054;2023-02-18T04:15:19;98716.22;;;11.31;100.00
19447;BME280;9862;49.462;11.054;2023-02-18T04:17:46;98724.78;;;11.26;100.00
19447;BME280;9862;49.462;11.054;2023-02-18T04:20:12;98729.88;;;11.21;100.00
19447;BME280;9862;49.462;11.054;2023-02-18T04:22:40;98719.84;;;11.23;100.00
19447;BME280;9862;49.462;11.054;2023-02-18T04:25:07;98721.47;;;11.24;100.00
19447;BME280;9862;49.462;11.054;2023-02-18T04:27:34;98713.28;;;11.26;100.00
19447;BME280;9862;49.462;11.054;2023-02-18T04:30:02;98715.75;;;11.27;100.00
19447;BME280;9862;49.462;11.054;2023-02-18T04:32:29;98720.88;;;11.22;100.00
19447;BME280;9862;49.462;11.054;2023-02-18T04:34:55;98717.19;;;11.23;100.00
19447;BME280;9862;49.462;11.054;2023-02-18T04:37:22;98710.22;;;11.22;100.00
19447;BME280;9862;49.462;11.054;2023-02-18T04:39:49;98720.47;;;11.25;100.00
19447;BME280;9862;49.462;11.054;2023-02-18T04:42:15;98716.56;;;11.21;100.00
19447;BME280;9862;49.462;11.054;2023-02-18T04:44:42;98715.53;;;11.22;100.00
19447;BME280;9862;49.462;11.054;2023-02-18T04:47:10;98714.13;;;11.26;100.00
19447;BME280;9862;49.462;11.054;2023-02-18T04:49:36;98717.03;;;11.31;100.00
19447;BME280;9862;49.462;11.054;2023-02-18T04:52:03;98714.72;;;11.28;100.00
19447;BME280;9862;49.462;11.054;2023-02-18T04:54:30;98724.22;;;11.37;100.00
19447;BME280;9862;49.462;11.054;2023-02-18T04:56:56;98720.31;;;11.33;100.00
19447;BME280;9862;49.462;11.054;2023-02-18T04:59:23;98722.38;;;11.38;100.00
19447;BME280;9862;49.462;11.054;2023-02-18T05:01:50;98709.28;;;11.43;100.00
19447;BME280;9862;49.462;11.054;2023-02-18T05:04:18;98713.81;;;11.42;100.00
19447;BME280;9862;49.462;11.054;2023-02-18T05:06:44;98712.78;;;11.43;100.00
19447;BME280;9862;49.462;11.054;2023-02-18T05:09:11;98713.19;;;11.47;100.00
19447;BME280;9862;49.462;11.054;2023-02-18T05:11:38;98709.34;;;11.50;100.00
19447;BME280;9862;49.462;11.054;2023-02-18T05:14:05;98711.41;;;11.54;100.00
19447;BME280;9862;49.462;11.054;2023-02-18T05:16:31;98714.25;;;11.53;100.00
19447;BME280;9862;49.462;11.054;2023-02-18T05:18:58;98708.47;;;11.42;100.00
19447;BME280;9862;49.462;11.054;2023-02-18T05:21:26;98710.47;;;11.34;100.00
19447;BME280;9862;49.462;11.054;2023-02-18T05:23:53;98708.78;;;11.26;100.00
19447;BME280;9862;49.462;11.054;2023-02-18T05:26:19;98710.81;;;11.24;100.00
19447;BME280;9862;49.462;11.054;2023-02-18T05:28:46;98713.09;;;11.27;100.00
19447;BME280;9862;49.462;11.054;2023-02-18T05:31:13;98710.41;;;11.21;100.00
19447;BME280;9862;49.462;11.054;2023-02-18T05:33:40;98706.66;;;11.15;100.00
19447;BME280;9862;49.462;11.054;2023-02-18T05:36:07;98704.00;;;11.15;100.00
19447;BME280;9862;49.462;11.054;2023-02-18T05:38:35;98699.69;;;11.14;100.00
19447;BME280;9862;49.462;11.054;2023-02-18T05:41:01;98708.31;;;11.16;100.00
19447;BME280;9862;49.462;11.054;2023-02-18T05:43:28;98711.59;;;11.18;100.00
19447;BME280;9862;49.462;11.054;2023-02-18T05:45:55;98700.25;;;11.03;100.00
19447;BME280;9862;49.462;11.054;2023-02-18T05:48:21;98696.75;;;11.02;100.00
19447;BME280;9862;49.462;11.054;2023-02-18T05:50:48;98703.53;;;11.05;100.00
19447;BME280;9862;49.462;11.054;2023-02-18T05:53:18;98696.41;;;11.12;100.00
19447;BME280;9862;49.462;11.054;2023-02-18T05:55:46;98697.25;;;11.12;100.00
19447;BME280;9862;49.462;11.054;2023-02-18T05:58:12;98685.41;;;11.22;100.00
19447;BME280;9862;49.462;11.054;2023-02-18T06:00:41;98689.91;;;11.21;100.00
19447;BME280;9862;49.462;11.054;2023-02-18T06:03:07;98682.13;;;11.26;100.00
19447;BME280;9862;49.462;11.054;2023-02-18T06:05:34;98694.06;;;11.30;100.00
19447;BME280;9862;49.462;11.054;2023-02-18T06:08:01;98700.63;;;11.34;100.00
19447;BME280;9862;49.462;11.054;2023-02-18T06:10:27;98699.41;;;11.30;100.00
19447;BME280;9862;49.462;11.054;2023-02-18T06:12:55;98698.28;;;11.18;100.00
19447;BME280;9862;49.462;11.054;2023-02-18T06:15:22;98690.28;;;11.18;100.00
19447;BME280;9862;49.462;11.054;2023-02-18T06:17:48;98703.59;;;11.18;100.00
19447;BME280;9862;49.462;11.054;2023-02-18T06:20:15;98699.91;;;11.19;100.00
19447;BME280;9862;49.462;11.054;2023-02-18T06:22:41;98706.09;;;11.20;100.00
19447;BME280;9862;49.462;11.054;2023-02-18T06:25:08;98699.78;;;11.27;100.00
19447;BME280;9862;49.462;11.054;2023-02-18T06:27:35;98700.78;;;11.26;100.00
19447;BME280;9862;49.462;11.054;2023-02-18T06:30:03;98689.25;;;11.19;100.00
19447;BME280;9862;49.462;11.054;2023-02-18T06:32:30;98687.00;;;11.16;100.00
19447;BME280;9862;49.462;11.054;2023-02-18T06:34:57;98682.69;;;11.15;100.00
19447;BME280;9862;49.462;11.054;2023-02-18T06:37:23;98681.53;;;11.24;100.00
19447;BME280;9862;49.462;11.054;2023-02-18T06:39:50;98679.53;;;11.33;100.00
19447;BME280;9862;49.462;11.054;2023-02-18T06:42:16;98675.22;;;11.32;100.00
19447;BME280;9862;49.462;11.054;2023-02-18T06:44:43;98680.50;;;11.25;100.00
19447;BME280;9862;49.462;11.054;2023-02-18T06:47:11;98677.25;;;11.30;100.00
19447;BME280;9862;49.462;11.054;2023-02-18T06:49:38;98670.91;;;11.37;100.00
19447;BME280;9862;49.462;11.054;2023-02-18T06:52:05;98682.59;;;11.36;100.00
19447;BME280;9862;49.462;11.054;2023-02-18T06:54:32;98668.25;;;11.37;100.00
19447;BME280;9862;49.462;11.054;2023-02-18T06:56:59;98654.16;;;11.43;100.00
19447;BME280;9862;49.462;11.054;2023-02-18T06:59:25;98653.53;;;11.41;100.00
19447;BME280;9862;49.462;11.054;2023-02-18T07:01:52;98649.84;;;11.42;100.00
19447;BME280;9862;49.462;11.054;2023-02-18T07:04:20;98652.31;;;11.44;100.00
19447;BME280;9862;49.462;11.054;2023-02-18T07:06:47;98646.56;;;11.40;100.00
19447;BME280;9862;49.462;11.054;2023-02-18T07:09:14;98644.47;;;11.36;100.00
19447;BME280;9862;49.462;11.054;2023-02-18T07:11:40;98655.38;;;11.41;100.00
19447;BME280;9862;49.462;11.054;2023-02-18T07:14:07;98647.38;;;11.41;100.00
19447;BME280;9862;49.462;11.054;2023-02-18T07:16:34;98641.59;;;11.37;100.00
19447;BME280;9862;49.462;11.054;2023-02-18T07:19:00;98641.63;;;11.44;100.00
19447;BME280;9862;49.462;11.054;2023-02-18T07:21:28;98645.53;;;11.41;100.00
19447;BME280;9862;49.462;11.054;2023-02-18T07:23:56;98637.91;;;11.38;100.00
19447;BME280;9862;49.462;11.054;2023-02-18T07:26:22;98637.53;;;11.41;100.00
19447;BME280;9862;49.462;11.054;2023-02-18T07:28:49;98633.06;;;11.49;100.00
19447;BME280;9862;49.462;11.054;2023-02-18T07:31:16;98641.06;;;11.49;100.00
19447;BME280;9862;49.462;11.054;2023-02-18T07:33:43;98636.97;;;11.53;100.00
19447;BME280;9862;49.462;11.054;2023-02-18T07:36:09;98632.66;;;11.52;100.00
19447;BME280;9862;49.462;11.054;2023-02-18T07:38:38;98633.88;;;11.56;100.00
19447;BME280;9862;49.462;11.054;2023-02-18T07:41:04;98639.66;;;11.59;100.00
19447;BME280;9862;49.462;11.054;2023-02-18T07:43:31;98639.84;;;11.58;100.00
19447;BME280;9862;49.462;11.054;2023-02-18T07:45:58;98644.59;;;11.62;100.00
19447;BME280;9862;49.462;11.054;2023-02-18T07:48:25;98635.34;;;11.65;100.00
19447;BME280;9862;49.462;11.054;2023-02-18T07:50:51;98636.41;;;11.70;100.00
19447;BME280;9862;49.462;11.054;2023-02-18T07:53:18;98633.53;;;11.72;100.00
19447;BME280;9862;49.462;11.054;2023-02-18T07:55:46;98629.69;;;11.81;100.00
19447;BME280;9862;49.462;11.054;2023-02-18T07:58:15;98625.38;;;11.80;100.00
19447;BME280;9862;49.462;11.054;2023-02-18T08:00:42;98621.25;;;11.78;100.00
19447;BME280;9862;49.462;11.054;2023-02-18T08:03:08;98614.72;;;11.80;100.00
19447;BME280;9862;49.462;11.054;2023-02-18T08:05:35;98619.84;;;11.82;100.00
19447;BME280;9862;49.462;11.054;2023-02-18T08:08:02;98628.47;;;11.84;100.00
19447;BME280;9862;49.462;11.054;2023-02-18T08:10:28;98628.66;;;11.82;100.00
19447;BME280;9862;49.462;11.054;2023-02-18T08:12:56;98606.06;;;11.78;100.00
19447;BME280;9862;49.462;11.054;2023-02-18T08:15:23;98613.25;;;11.78;100.00
19447;BME280;9862;49.462;11.054;2023-02-18T08:17:50;98611.44;;;11.85;100.00
19447;BME280;9862;49.462;11.054;2023-02-18T08:20:16;98611.22;;;11.86;100.00
19447;BME280;9862;49.462;11.054;2023-02-18T08:22:43;98613.28;;;11.84;100.00
19447;BME280;9862;49.462;11.054;2023-02-18T08:25:09;98603.66;;;11.83;100.00
19447;BME280;9862;49.462;11.054;2023-02-18T08:27:36;98588.47;;;11.84;100.00
19447;BME280;9862;49.462;11.054;2023-02-18T08:30:05;98589.50;;;11.96;100.00
19447;BME280;9862;49.462;11.054;2023-02-18T08:32:32;98574.75;;;12.07;100.00
19447;BME280;9862;49.462;11.054;2023-02-18T08:34:58;98584.38;;;12.14;100.00
19447;BME280;9862;49.462;11.054;2023-02-18T08:37:25;98590.34;;;12.16;100.00
19447;BME280;9862;49.462;11.054;2023-02-18T08:39:52;98585.19;;;12.15;100.00
19447;BME280;9862;49.462;11.054;2023-02-18T08:42:18;98580.91;;;12.14;100.00
19447;BME280;9862;49.462;11.054;2023-02-18T08:44:45;98579.88;;;12.15;100.00
19447;BME280;9862;49.462;11.054;2023-02-18T08:47:13;98582.34;;;12.16;100.00
19447;BME280;9862;49.462;11.054;2023-02-18T08:49:40;98578.25;;;12.20;100.00
19447;BME280;9862;49.462;11.054;2023-02-18T08:52:06;98573.13;;;12.19;100.00
19447;BME280;9862;49.462;11.054;2023-02-18T08:54:33;98572.09;;;12.20;100.00
19447;BME280;9862;49.462;11.054;2023-02-18T08:56:59;98573.72;;;12.21;100.00
19447;BME280;9862;49.462;11.054;2023-02-18T08:59:26;98556.28;;;12.18;100.00
19447;BME280;9862;49.462;11.054;2023-02-18T09:01:53;98570.44;;;12.19;100.00
19447;BME280;9862;49.462;11.054;2023-02-18T09:04:21;98544.59;;;12.26;100.00
19447;BME280;9862;49.462;11.054;2023-02-18T09:06:48;98538.81;;;12.29;100.00
19447;BME280;9862;49.462;11.054;2023-02-18T09:09:15;98536.16;;;12.29;100.00
19447;BME280;9862;49.462;11.054;2023-02-18T09:11:42;98532.66;;;12.28;100.00
19447;BME280;9862;49.462;11.054;2023-02-18T09:14:09;98524.06;;;12.26;100.00
19447;BME280;9862;49.462;11.054;2023-02-18T09:16:37;98513.56;;;12.25;100.00
19447;BME280;9862;49.462;11.054;2023-02-18T09:19:04;98514.97;;;12.34;100.00
19447;BME280;9862;49.462;11.054;2023-02-18T09:21:32;98510.06;;;12.38;100.00
19447;BME280;9862;49.462;11.054;2023-02-18T09:23:59;98502.66;;;12.46;100.00
19447;BME280;9862;49.462;11.054;2023-02-18T09:26:26;98497.72;;;12.43;100.00
19447;BME280;9862;49.462;11.054;2023-02-18T09:28:54;98499.19;;;12.46;100.00
19447;BME280;9862;49.462;11.054;2023-02-18T09:31:22;98517.44;;;12.42;100.00
19447;BME280;9862;49.462;11.054;2023-02-18T09:33:51;98509.44;;;12.49;100.00
19447;BME280;9862;49.462;11.054;2023-02-18T09:36:18;98509.63;;;12.47;100.00
19447;BME280;9862;49.462;11.054;2023-02-18T09:38:47;98509.63;;;12.47;100.00
19447;BME280;9862;49.462;11.054;2023-02-18T09:41:27;98516.19;;;12.51;100.00
19447;BME280;9862;49.462;11.054;2023-02-18T09:43:58;98511.47;;;12.53;100.00
19447;BME280;9862;49.462;11.054;2023-02-18T09:46:31;98529.97;;;12.55;100.00
19447;BME280;9862;49.462;11.054;2023-02-18T09:49:01;98511.66;;;12.52;100.00
19447;BME280;9862;49.462;11.054;2023-02-18T09:51:28;98524.38;;;12.63;100.00
19447;BME280;9862;49.462;11.054;2023-02-18T09:53:56;98509.59;;;12.60;100.00
19447;BME280;9862;49.462;11.054;2023-02-18T09:56:27;98516.97;;;12.72;100.00
19447;BME280;9862;49.462;11.054;2023-02-18T09:58:57;98506.69;;;12.69;100.00
19447;BME280;9862;49.462;11.054;2023-02-18T10:01:27;98502.63;;;12.66;100.00
19447;BME280;9862;49.462;11.054;2023-02-18T10:03:59;98499.53;;;12.63;100.00
19447;BME280;9862;49.462;11.054;2023-02-18T10:06:29;98496.84;;;12.63;100.00
19447;BME280;9862;49.462;11.054;2023-02-18T10:08:59;98481.63;;;12.70;100.00
19447;BME280;9862;49.462;11.054;2023-02-18T10:11:29;98487.78;;;12.70;100.00
19447;BME280;9862;49.462;11.054;2023-02-18T10:13:58;98488.63;;;12.71;100.00
19447;BME280;9862;49.462;11.054;2023-02-18T10:16:27;98478.78;;;12.65;100.00
19447;BME280;9862;49.462;11.054;2023-02-18T10:18:56;98483.28;;;12.71;100.00
19447;BME280;9862;49.462;11.054;2023-02-18T10:21:26;98493.34;;;12.69;100.00
19447;BME280;9862;49.462;11.054;2023-02-18T10:23:59;98487.41;;;12.67;100.00
19447;BME280;9862;49.462;11.054;2023-02-18T10:26:28;98490.69;;;12.69;100.00
19447;BME280;9862;49.462;11.054;2023-02-18T10:28:55;98480.44;;;12.66;100.00
19447;BME280;9862;49.462;11.054;2023-02-18T10:31:27;98489.44;;;12.71;100.00
19447;BME280;9862;49.462;11.054;2023-02-18T10:33:59;98478.72;;;12.78;100.00
19447;BME280;9862;49.462;11.054;2023-02-18T10:36:35;98468.22;;;12.83;100.00
19447;BME280;9862;49.462;11.054;2023-02-18T10:39:13;98450.72;;;12.94;100.00
19447;BME280;9862;49.462;11.054;2023-02-18T10:41:51;98454.81;;;12.96;100.00
19447;BME280;9862;49.462;11.054;2023-02-18T10:44:28;98456.47;;;12.97;100.00
19447;BME280;9862;49.462;11.054;2023-02-18T10:47:14;98470.41;;;12.99;100.00
19447;BME280;9862;49.462;11.054;2023-02-18T10:49:55;98463.34;;;13.11;100.00
19447;BME280;9862;49.462;11.054;2023-02-18T10:52:22;98453.53;;;13.05;100.00
19447;BME280;9862;49.462;11.054;2023-02-18T10:54:57;98453.53;;;13.05;100.00
19447;BME280;9862;49.462;11.054;2023-02-18T10:57:25;98463.00;;;13.01;100.00
19447;BME280;9862;49.462;11.054;2023-02-18T10:59:57;98456.03;;;13.00;100.00
19447;BME280;9862;49.462;11.054;2023-02-18T11:02:26;98448.59;;;13.02;100.00
19447;BME280;9862;49.462;11.054;2023-02-18T11:04:56;98462.19;;;13.01;100.00
19447;BME280;9862;49.462;11.054;2023-02-18T11:07:25;98446.56;;;13.04;100.00
19447;BME280;9862;49.462;11.054;2023-02-18T11:09:57;98448.78;;;13.07;100.00
19447;BME280;9862;49.462;11.054;2023-02-18T11:12:26;98443.66;;;13.06;100.00
19447;BME280;9862;49.462;11.054;2023-02-18T11:15:15;98448.56;;;13.09;100.00
19447;BME280;9862;49.462;11.054;2023-02-18T11:17:44;98438.31;;;13.06;100.00
19447;BME280;9862;49.462;11.054;2023-02-18T11:20:28;98442.59;;;13.13;100.00
19447;BME280;9862;49.462;11.054;2023-02-18T11:23:17;98427.63;;;13.12;100.00
19447;BME280;9862;49.462;11.054;2023-02-18T11:25:58;98427.16;;;13.15;100.00
19447;BME280;9862;49.462;11.054;2023-02-18T11:28:44;98432.50;;;13.15;100.00
19447;BME280;9862;49.462;11.054;2023-02-18T11:31:18;98422.25;;;13.12;100.00
19447;BME280;9862;49.462;11.054;2023-02-18T11:33:48;98415.25;;;13.11;100.00
19447;BME280;9862;49.462;11.054;2023-02-18T11:36:19;98405.19;;;13.13;100.00
19447;BME280;9862;49.462;11.054;2023-02-18T11:38:50;98419.75;;;13.17;100.00
19447;BME280;9862;49.462;11.054;2023-02-18T11:41:21;98402.91;;;13.24;100.00
19447;BME280;9862;49.462;11.054;2023-02-18T11:43:55;98405.34;;;13.18;100.00
19447;BME280;9862;49.462;11.054;2023-02-18T11:46:24;98416.03;;;13.18;100.00
19447;BME280;9862;49.462;11.054;2023-02-18T11:48:51;98395.09;;;13.15;100.00
19447;BME280;9862;49.462;11.054;2023-02-18T11:51:20;98391.16;;;13.18;100.00
19447;BME280;9862;49.462;11.054;2023-02-18T11:53:59;98381.09;;;13.20;100.00
19447;BME280;9862;49.462;11.054;2023-02-18T11:56:30;98386.22;;;13.22;100.00
19447;BME280;9862;49.462;11.054;2023-02-18T11:58:57;98391.75;;;13.27;100.00
19447;BME280;9862;49.462;11.054;2023-02-18T12:01:37;98393.03;;;13.24;100.00
19447;BME280;9862;49.462;11.054;2023-02-18T12:04:11;98398.75;;;13.28;100.00
19447;BME280;9862;49.462;11.054;2023-02-18T12:06:44;98393.63;;;13.26;100.00
19447;BME280;9862;49.462;11.054;2023-02-18T12:09:18;98379.44;;;13.26;100.00
19447;BME280;9862;49.462;11.054;2023-02-18T12:11:50;98373.72;;;13.22;100.00
19447;BME280;9862;49.462;11.054;2023-02-18T12:14:19;98367.53;;;13.22;100.00
19447;BME280;9862;49.462;11.054;2023-02-18T12:20:00;98383.28;;;13.30;100.00
19447;BME280;9862;49.462;11.054;2023-02-18T12:22:38;98371.84;;;13.23;100.00
19447;BME280;9862;49.462;11.054;2023-02-18T12:25:21;98377.41;;;13.21;100.00
19447;BME280;9862;49.462;11.054;2023-02-18T12:27:58;98354.56;;;13.18;100.00
19447;BME280;9862;49.462;11.054;2023-02-18T12:30:37;98349.94;;;13.07;100.00
19447;BME280;9862;49.462;11.054;2023-02-18T12:33:17;98363.03;;;13.15;100.00
19447;BME280;9862;49.462;11.054;2023-02-18T12:35:57;98370.00;;;13.16;100.00
19447;BME280;9862;49.462;11.054;2023-02-18T12:38:43;98364.25;;;13.20;100.00
19447;BME280;9862;49.462;11.054;2023-02-18T12:41:31;98351.50;;;13.22;100.00
19447;BME280;9862;49.462;11.054;2023-02-18T12:44:06;98357.59;;;13.29;100.00
19447;BME280;9862;49.462;11.054;2023-02-18T12:46:49;98345.50;;;13.26;100.00
19447;BME280;9862;49.462;11.054;2023-02-18T12:49:54;98354.72;;;13.30;100.00
19447;BME280;9862;49.462;11.054;2023-02-18T12:52:31;98338.03;;;13.35;100.00
19447;BME280;9862;49.462;11.054;2023-02-18T12:55:31;98348.13;;;13.33;100.00
19447;BME280;9862;49.462;11.054;2023-02-18T12:58:06;98343.16;;;13.36;100.00
19447;BME280;9862;49.462;11.054;2023-02-18T13:00:56;98332.91;;;13.33;100.00
19447;BME280;9862;49.462;11.054;2023-02-18T13:06:41;98339.88;;;13.34;100.00
19447;BME280;9862;49.462;11.054;2023-02-18T13:09:18;98345.84;;;13.36;100.00
19447;BME280;9862;49.462;11.054;2023-02-18T13:11:57;98325.25;;;13.37;100.00